Time;durP1;ratioP1;P1;durP2;ratioP2;P2;SDS_P1;SDS_P2;PMS_P1;PMS_P2;Temp;Humidity;BMP_temperature;BMP_pressure;BME280_temperature;BME280_humidity;BME280_pressure;Samples;Min_cycle;Max_cycle;Signal;HPM_P1;HPM_P2
2023/07/23 00:00:31;;;;;;;6.35;2.95;;;18.20;78.30;;;;;;5137591;27;20034;-79
2023/07/23 00:02:57;;;;;;;5.45;2.67;;;18.10;78.60;;;;;;5121695;27;20055;-78
2023/07/23 00:05:24;;;;;;;7.05;2.88;;;18.30;78.10;;;;;;5137819;27;20103;-78
2023/07/23 00:07:50;;;;;;;4.90;2.63;;;18.20;78.50;;;;;;5137999;27;20019;-78
2023/07/23 00:10:16;;;;;;;6.93;2.78;;;18.20;78.30;;;;;;5138412;27;20028;-78
2023/07/23 00:12:42;;;;;;;4.93;2.53;;;18.20;78.40;;;;;;5140553;27;20023;-78
2023/07/23 00:15:08;;;;;;;6.57;2.97;;;18.20;78.60;;;;;;5138668;27;20080;-79
2023/07/23 00:17:33;;;;;;;5.45;2.88;;;18.20;78.60;;;;;;5138763;27;20038;-79
2023/07/23 00:19:59;;;;;;;4.90;2.55;;;18.20;78.70;;;;;;5120087;27;20046;-79
2023/07/23 00:22:27;;;;;;;6.07;2.80;;;18.20;79.10;;;;;;5139642;27;20049;-79
2023/07/23 00:24:57;;;;;;;5.15;2.80;;;18.10;79.50;;;;;;5138650;27;20090;-79
2023/07/23 00:27:23;;;;;;;5.00;2.40;;;18.00;79.80;;;;;;5137910;27;20480;-79
2023/07/23 00:29:48;;;;;;;5.25;2.75;;;18.10;79.50;;;;;;5139450;27;20475;-79
2023/07/23 00:32:14;;;;;;;7.28;2.97;;;18.10;79.50;;;;;;5139464;27;20098;-79
2023/07/23 00:34:40;;;;;;;7.15;2.88;;;18.10;79.70;;;;;;5121463;27;20091;-79
2023/07/23 00:37:06;;;;;;;5.28;2.63;;;18.10;79.70;;;;;;5137232;27;20311;-79
2023/07/23 00:39:31;;;;;;;5.35;2.55;;;18.40;78.90;;;;;;5140059;27;20069;-79
2023/07/23 00:41:57;;;;;;;9.00;2.75;;;18.40;79.00;;;;;;5139947;27;20008;-79
2023/07/23 00:44:23;;;;;;;5.45;2.80;;;18.30;79.30;;;;;;5138978;27;20430;-78
2023/07/23 00:46:49;;;;;;;5.47;2.55;;;18.30;79.40;;;;;;5137685;27;20031;-79
2023/07/23 00:49:15;;;;;;;5.57;2.47;;;18.50;78.50;;;;;;5138660;27;20042;-79
2023/07/23 00:51:41;;;;;;;5.90;2.92;;;18.50;78.70;;;;;;5138809;27;20030;-79
2023/07/23 00:54:07;;;;;;;7.10;2.50;;;18.50;78.60;;;;;;5137646;27;20159;-79
2023/07/23 00:56:35;;;;;;;5.13;2.70;;;18.40;78.70;;;;;;5129315;27;20031;-79
2023/07/23 00:59:01;;;;;;;5.07;2.60;;;18.60;78.10;;;;;;5130113;27;20034;-79
2023/07/23 01:01:26;;;;;;;6.03;2.40;;;18.80;77.60;;;;;;5135835;27;20027;-79
2023/07/23 01:03:52;;;;;;;4.90;2.42;;;18.90;77.00;;;;;;5120810;27;20038;-79
2023/07/23 01:06:19;;;;;;;4.80;2.42;;;18.80;77.50;;;;;;5136658;27;20024;-79
2023/07/23 01:08:46;;;;;;;5.00;2.50;;;18.90;77.10;;;;;;5137540;27;20015;-79
2023/07/23 01:11:13;;;;;;;6.85;2.50;;;19.10;76.60;;;;;;5137739;27;20027;-79
2023/07/23 01:13:39;;;;;;;4.95;2.63;;;19.10;76.70;;;;;;5137521;27;20031;-79
2023/07/23 01:16:07;;;;;;;5.80;2.30;;;19.10;76.60;;;;;;5132545;27;20416;-79
2023/07/23 01:18:37;;;;;;;5.68;2.28;;;18.90;77.10;;;;;;5118124;27;20030;-79
2023/07/23 01:21:03;;;;;;;4.93;2.53;;;18.80;77.20;;;;;;5125272;27;20366;-79
2023/07/23 01:23:30;;;;;;;4.97;2.30;;;19.00;77.00;;;;;;5137576;27;20420;-79
2023/07/23 01:25:56;;;;;;;5.50;2.50;;;19.00;76.90;;;;;;5128440;27;20371;-79
2023/07/23 01:28:22;;;;;;;4.40;2.33;;;19.10;76.50;;;;;;5137067;27;20072;-79
2023/07/23 01:30:47;;;;;;;5.55;2.67;;;19.00;76.90;;;;;;5136997;27;20035;-79
2023/07/23 01:33:13;;;;;;;4.82;2.33;;;18.90;77.00;;;;;;5138067;27;20104;-79
2023/07/23 01:35:38;;;;;;;7.35;2.60;;;19.00;76.80;;;;;;5135443;27;20434;-79
2023/07/23 01:38:05;;;;;;;6.53;3.05;;;18.90;77.10;;;;;;5134400;27;20023;-80
2023/07/23 01:40:30;;;;;;;5.45;2.75;;;18.90;77.60;;;;;;5131756;27;20400;-79
2023/07/23 01:42:56;;;;;;;5.75;2.50;;;18.80;77.40;;;;;;5136207;27;20102;-79
2023/07/23 01:45:22;;;;;;;4.78;2.38;;;18.70;77.60;;;;;;5136430;27;20023;-79
2023/07/23 01:47:47;;;;;;;5.85;2.55;;;18.60;77.40;;;;;;5123749;27;20119;-79
2023/07/23 01:50:13;;;;;;;5.40;2.53;;;18.60;78.30;;;;;;5131285;27;20828;-79
2023/07/23 01:52:38;;;;;;;6.03;2.30;;;18.60;78.20;;;;;;5135443;27;20083;-79
2023/07/23 01:55:04;;;;;;;6.53;2.60;;;18.50;78.30;;;;;;5136557;27;20031;-79
2023/07/23 01:57:30;;;;;;;6.43;2.88;;;18.30;78.90;;;;;;5119201;27;20031;-79
2023/07/23 01:59:56;;;;;;;5.00;2.10;;;18.20;79.80;;;;;;5134191;27;20077;-79
2023/07/23 02:02:21;;;;;;;4.72;2.40;;;17.90;80.40;;;;;;5128316;27;20019;-78
2023/07/23 02:04:47;;;;;;;3.90;1.95;;;17.90;79.90;;;;;;5112984;27;20019;-79
2023/07/23 02:07:14;;;;;;;6.40;2.53;;;18.00;79.90;;;;;;5132856;27;20027;-78
2023/07/23 02:09:40;;;;;;;4.88;2.15;;;17.90;80.30;;;;;;5135511;27;20101;-77
2023/07/23 02:12:06;;;;;;;4.43;2.28;;;17.90;80.60;;;;;;5127334;27;20156;-79
2023/07/23 02:14:31;;;;;;;5.97;2.67;;;17.80;80.90;;;;;;5135525;27;20027;-79
2023/07/23 02:16:57;;;;;;;5.60;2.60;;;17.70;81.20;;;;;;5134757;27;20319;-79
2023/07/23 02:19:22;;;;;;;6.75;2.72;;;17.60;81.60;;;;;;5136714;27;20316;-79
2023/07/23 02:21:48;;;;;;;5.40;2.65;;;17.50;81.50;;;;;;5134329;27;20027;-79
2023/07/23 02:24:13;;;;;;;4.50;2.40;;;17.60;81.40;;;;;;5117775;27;20046;-79
2023/07/23 02:26:39;;;;;;;5.22;2.55;;;17.50;81.40;;;;;;5136350;27;20027;-79
2023/07/23 02:29:05;;;;;;;5.97;3.15;;;17.60;81.40;;;;;;5137056;27;20086;-79
2023/07/23 02:31:30;;;;;;;6.78;2.85;;;17.60;81.00;;;;;;5136418;27;20063;-78
2023/07/23 02:33:56;;;;;;;4.20;2.20;;;17.60;81.10;;;;;;5135252;27;20027;-79
2023/07/23 02:36:21;;;;;;;4.75;2.70;;;17.60;81.20;;;;;;5135137;27;20037;-79
2023/07/23 02:38:50;;;;;;;5.30;2.63;;;17.60;81.50;;;;;;5118063;27;20488;-79
2023/07/23 02:41:15;;;;;;;5.35;2.60;;;17.60;81.30;;;;;;5137424;27;20084;-79
2023/07/23 02:43:41;;;;;;;5.18;2.40;;;17.50;81.30;;;;;;5136788;27;20251;-78
2023/07/23 02:46:06;;;;;;;4.65;2.50;;;17.40;81.40;;;;;;5135709;27;20039;-79
2023/07/23 02:48:32;;;;;;;4.20;2.42;;;17.30;81.60;;;;;;5136760;27;20073;-79
2023/07/23 02:50:57;;;;;;;5.45;2.90;;;17.30;81.60;;;;;;5135042;27;20031;-79
2023/07/23 02:53:23;;;;;;;4.53;2.33;;;17.40;81.40;;;;;;5136617;27;20034;-79
2023/07/23 02:55:49;;;;;;;4.55;2.28;;;17.40;81.40;;;;;;5135991;27;20038;-78
2023/07/23 02:58:14;;;;;;;5.50;2.28;;;17.30;81.40;;;;;;5136372;27;20019;-77
2023/07/23 03:00:42;;;;;;;4.55;2.60;;;17.30;81.40;;;;;;5135300;27;20076;-78
2023/07/23 03:03:08;;;;;;;4.95;2.67;;;17.30;81.40;;;;;;5136273;27;20370;-78
2023/07/23 03:05:36;;;;;;;5.68;2.58;;;17.20;81.60;;;;;;5134224;27;20153;-78
2023/07/23 03:08:02;;;;;;;6.78;3.10;;;17.10;81.90;;;;;;5136296;27;20031;-80
2023/07/23 03:10:29;;;;;;;6.50;2.40;;;17.20;81.90;;;;;;5117843;27;20027;-79
2023/07/23 03:12:54;;;;;;;6.22;2.42;;;17.30;81.60;;;;;;5135163;27;20034;-80
2023/07/23 03:15:20;;;;;;;5.20;2.55;;;17.30;81.40;;;;;;5135294;27;20023;-79
2023/07/23 03:17:50;;;;;;;6.00;2.85;;;17.30;81.40;;;;;;5132969;27;20023;-79
2023/07/23 03:20:16;;;;;;;5.18;2.83;;;17.30;81.40;;;;;;5133203;27;20106;-79
2023/07/23 03:22:41;;;;;;;4.68;2.60;;;17.30;81.40;;;;;;5136227;27;20098;-79
2023/07/23 03:25:07;;;;;;;5.53;2.33;;;17.30;82.00;;;;;;5136112;27;20027;-79
2023/07/23 03:27:33;;;;;;;5.82;2.97;;;17.20;81.60;;;;;;5132821;27;20042;-79
2023/07/23 03:29:58;;;;;;;6.38;2.63;;;17.20;81.60;;;;;;5136082;27;20026;-79
2023/07/23 03:32:24;;;;;;;6.00;2.50;;;17.20;81.60;;;;;;5136168;27;20042;-78
2023/07/23 03:34:50;;;;;;;5.38;2.67;;;17.20;81.80;;;;;;5134641;27;20372;-79
2023/07/23 03:37:15;;;;;;;5.97;2.78;;;17.20;81.70;;;;;;5134142;27;20419;-79
2023/07/23 03:39:41;;;;;;;5.30;2.58;;;17.30;81.60;;;;;;5136701;28;20301;-80
2023/07/23 03:42:07;;;;;;;5.53;2.88;;;17.50;81.00;;;;;;5136266;27;20059;-79
2023/07/23 03:44:33;;;;;;;7.00;2.50;;;17.60;80.80;;;;;;5134684;27;20034;-79
2023/07/23 03:47:15;;;;;;;5.18;2.67;;;17.70;80.50;;;;;;5135858;28;20027;-80
2023/07/23 03:49:41;;;;;;;5.55;2.70;;;17.70;80.50;;;;;;5116713;28;20047;-79
2023/07/23 03:52:07;;;;;;;6.55;2.55;;;17.70;80.40;;;;;;5113848;27;20438;-80
2023/07/23 03:54:35;;;;;;;8.90;2.92;;;17.60;80.90;;;;;;5132776;27;20423;-79
2023/07/23 03:57:01;;;;;;;5.00;2.50;;;17.50;81.20;;;;;;5132270;27;20030;-79
2023/07/23 03:59:29;;;;;;;5.25;2.60;;;17.60;81.00;;;;;;5135574;27;20027;-79
2023/07/23 04:01:54;;;;;;;6.07;2.40;;;17.60;81.10;;;;;;5135964;27;20148;-80
2023/07/23 04:04:20;;;;;;;4.97;2.67;;;17.60;81.10;;;;;;5133652;27;20411;-79
2023/07/23 04:06:45;;;;;;;5.85;2.55;;;17.50;81.80;;;;;;5134184;27;20057;-79
2023/07/23 04:09:13;;;;;;;6.05;2.63;;;17.30;82.10;;;;;;5134960;27;20042;-79
2023/07/23 04:11:39;;;;;;;5.47;2.75;;;17.20;82.40;;;;;;5135356;27;20019;-78
2023/07/23 04:14:04;;;;;;;6.32;2.63;;;17.20;82.70;;;;;;5135763;28;20041;-79
2023/07/23 04:16:30;;;;;;;6.18;2.70;;;17.10;82.70;;;;;;5128879;27;20122;-79
2023/07/23 04:18:55;;;;;;;4.88;2.63;;;17.10;82.90;;;;;;5132605;27;20443;-79
2023/07/23 04:21:22;;;;;;;5.32;2.70;;;17.10;83.00;;;;;;5134122;27;20084;-80
2023/07/23 04:23:52;;;;;;;5.05;2.75;;;17.10;83.10;;;;;;5133991;27;20031;-79
2023/07/23 04:26:19;;;;;;;5.72;2.63;;;17.00;83.40;;;;;;5116849;28;20315;-80
2023/07/23 04:28:45;;;;;;;5.82;3.00;;;17.10;83.30;;;;;;5117454;28;20031;-80
2023/07/23 04:31:11;;;;;;;4.70;2.50;;;17.10;83.20;;;;;;5136408;28;20104;-80
2023/07/23 04:33:37;;;;;;;7.72;2.40;;;17.10;83.30;;;;;;5134175;27;20031;-79
2023/07/23 04:36:09;;;;;;;4.40;2.50;;;17.10;83.40;;;;;;5133900;27;20312;-79
2023/07/23 04:38:36;;;;;;;5.82;2.67;;;17.10;83.30;;;;;;5135321;27;20019;-79
2023/07/23 04:41:01;;;;;;;5.28;2.97;;;17.20;83.40;;;;;;5115149;27;20068;-79
2023/07/23 04:43:27;;;;;;;4.97;2.45;;;17.20;83.40;;;;;;5134001;27;20027;-79
2023/07/23 04:45:53;;;;;;;5.05;2.38;;;17.20;83.60;;;;;;5134769;27;20031;-79
2023/07/23 04:48:18;;;;;;;9.18;4.03;;;17.20;83.50;;;;;;5115113;27;20050;-79
2023/07/23 04:50:44;;;;;;;6.35;3.03;;;17.30;83.20;;;;;;5131805;27;20031;-79
2023/07/23 04:53:10;;;;;;;4.40;2.42;;;17.30;82.90;;;;;;5112376;27;20027;-79
2023/07/23 04:55:39;;;;;;;4.57;2.42;;;17.40;82.40;;;;;;5136130;27;20034;-79
2023/07/23 04:58:05;;;;;;;7.38;2.65;;;17.50;82.30;;;;;;5136797;27;20357;-79
2023/07/23 05:00:30;;;;;;;5.07;2.75;;;17.50;82.90;;;;;;5135359;27;20027;-80
2023/07/23 05:02:56;;;;;;;5.68;2.47;;;17.50;83.10;;;;;;5133988;27;20022;-79
2023/07/23 05:05:21;;;;;;;4.95;2.55;;;17.50;82.80;;;;;;5137692;27;20339;-80
2023/07/23 05:07:47;;;;;;;6.35;2.85;;;17.50;82.60;;;;;;5136727;27;20311;-79
2023/07/23 05:10:12;;;;;;;6.70;2.88;;;17.60;83.00;;;;;;5137891;27;20023;-80
2023/07/23 05:12:39;;;;;;;5.50;2.63;;;17.50;83.30;;;;;;5136058;27;20443;-79
2023/07/23 05:15:14;;;;;;;6.18;2.75;;;17.50;84.10;;;;;;5137550;27;20019;-80
2023/07/23 05:17:41;;;;;;;5.50;2.60;;;17.40;83.80;;;;;;5135795;27;20062;-79
2023/07/23 05:20:08;;;;;;;4.45;2.58;;;17.50;83.40;;;;;;5136928;27;20019;-79
2023/07/23 05:22:39;;;;;;;6.18;2.90;;;17.60;83.60;;;;;;5135948;27;20019;-79
2023/07/23 05:25:05;;;;;;;7.57;2.95;;;17.70;82.90;;;;;;5135742;27;20019;-79
2023/07/23 05:27:31;;;;;;;5.45;2.80;;;17.70;83.20;;;;;;5115372;27;20057;-80
2023/07/23 05:29:57;;;;;;;6.00;2.60;;;17.90;82.30;;;;;;5137579;27;20035;-80
2023/07/23 05:32:25;;;;;;;5.03;2.50;;;18.00;82.90;;;;;;5119050;27;20439;-81
2023/07/23 05:34:53;;;;;;;5.80;2.50;;;18.00;82.30;;;;;;5131150;27;20066;-80
2023/07/23 05:37:19;;;;;;;4.63;2.50;;;18.20;81.10;;;;;;5136068;27;20042;-80
2023/07/23 05:39:44;;;;;;;5.60;2.28;;;18.40;80.90;;;;;;5136703;27;20031;-80
2023/07/23 05:42:10;;;;;;;5.75;2.40;;;18.60;79.80;;;;;;5117667;27;20023;-79
2023/07/23 05:44:35;;;;;;;5.55;2.53;;;18.70;80.40;;;;;;5135911;27;20019;-80
2023/07/23 05:47:01;;;;;;;4.90;2.40;;;18.80;79.70;;;;;;5136773;27;20110;-79
2023/07/23 05:49:28;;;;;;;4.53;2.70;;;19.00;80.20;;;;;;5133820;27;20050;-79
2023/07/23 05:51:53;;;;;;;6.88;3.03;;;19.10;78.40;;;;;;5133382;27;20106;-78
2023/07/23 05:54:19;;;;;;;4.75;2.30;;;19.30;77.80;;;;;;5134902;27;20099;-78
2023/07/23 05:56:44;;;;;;;6.28;2.42;;;19.50;77.40;;;;;;5136901;27;20568;-78
2023/07/23 05:59:10;;;;;;;4.95;2.30;;;19.80;76.00;;;;;;5134993;27;20019;-77
2023/07/23 06:01:36;;;;;;;4.65;2.72;;;19.90;76.20;;;;;;5135202;27;20102;-78
2023/07/23 06:04:02;;;;;;;4.82;2.42;;;20.10;75.70;;;;;;5116315;27;20312;-80
2023/07/23 06:06:28;;;;;;;9.57;2.63;;;20.40;75.00;;;;;;5136097;27;20031;-79
2023/07/23 06:08:54;;;;;;;4.68;2.15;;;20.60;75.50;;;;;;5135865;27;20031;-79
2023/07/23 06:11:21;;;;;;;5.65;2.63;;;20.90;74.90;;;;;;5135342;27;20019;-80
2023/07/23 06:13:46;;;;;;;4.50;2.60;;;21.40;74.10;;;;;;5132095;27;20057;-80
2023/07/23 06:16:12;;;;;;;4.53;2.22;;;21.70;73.50;;;;;;5136180;27;20027;-80
2023/07/23 06:18:38;;;;;;;4.28;2.30;;;22.20;71.90;;;;;;5134287;27;20312;-80
2023/07/23 06:21:03;;;;;;;6.13;2.30;;;22.70;71.00;;;;;;5132659;27;20444;-80
2023/07/23 06:23:29;;;;;;;4.80;2.35;;;22.80;71.20;;;;;;5129418;27;20030;-80
2023/07/23 06:25:55;;;;;;;5.30;2.72;;;22.90;70.50;;;;;;5126916;27;20030;-79
2023/07/23 06:28:21;;;;;;;4.60;2.10;;;22.90;70.10;;;;;;5133336;27;20054;-78
2023/07/23 06:30:50;;;;;;;7.00;2.80;;;22.80;69.40;;;;;;5133024;27;20027;-79
2023/07/23 06:33:16;;;;;;;5.95;2.70;;;22.90;69.60;;;;;;5134073;27;20035;-79
2023/07/23 06:35:45;;;;;;;5.55;2.30;;;23.10;69.80;;;;;;5133127;27;20031;-78
2023/07/23 06:38:11;;;;;;;5.25;2.40;;;23.00;67.70;;;;;;5133152;27;20155;-79
2023/07/23 06:40:36;;;;;;;6.65;2.47;;;22.80;69.70;;;;;;5126845;27;20475;-79
2023/07/23 06:43:02;;;;;;;5.07;2.60;;;22.80;69.40;;;;;;5130555;27;20031;-79
2023/07/23 06:45:31;;;;;;;5.65;2.65;;;23.00;69.30;;;;;;5128286;27;20191;-79
2023/07/23 06:47:56;;;;;;;4.95;2.38;;;23.00;69.50;;;;;;5115603;27;20031;-79
2023/07/23 06:50:22;;;;;;;7.97;2.80;;;23.00;69.60;;;;;;5132803;27;20108;-79
2023/07/23 06:52:47;;;;;;;6.20;2.50;;;22.80;69.80;;;;;;5133185;27;20031;-78
2023/07/23 06:55:13;;;;;;;5.70;2.78;;;22.40;69.90;;;;;;5130858;27;20023;-80
2023/07/23 06:57:40;;;;;;;4.63;2.53;;;22.30;70.80;;;;;;5134968;27;20110;-79
2023/07/23 07:00:07;;;;;;;6.28;2.85;;;22.30;70.90;;;;;;5134035;27;20072;-79
2023/07/23 07:02:34;;;;;;;4.50;2.03;;;22.10;70.20;;;;;;5116540;27;20408;-79
2023/07/23 07:04:59;;;;;;;5.07;2.80;;;21.90;70.50;;;;;;5133349;27;20412;-80
2023/07/23 07:07:25;;;;;;;4.78;2.85;;;21.90;71.00;;;;;;5117532;27;20031;-78
2023/07/23 07:09:52;;;;;;;6.25;2.88;;;21.60;71.50;;;;;;5129778;27;20080;-79
2023/07/23 07:12:18;;;;;;;5.72;2.97;;;21.50;72.00;;;;;;5117113;27;20110;-78
2023/07/23 07:14:44;;;;;;;6.22;2.88;;;21.50;72.30;;;;;;5133056;27;20496;-78
2023/07/23 07:17:09;;;;;;;4.20;2.50;;;21.50;72.40;;;;;;5131282;27;20031;-77
2023/07/23 07:19:35;;;;;;;5.45;2.40;;;21.60;72.40;;;;;;5127201;27;20027;-78
2023/07/23 07:22:00;;;;;;;6.43;2.70;;;21.70;71.70;;;;;;5128615;27;20023;-79
2023/07/23 07:24:27;;;;;;;4.55;2.40;;;22.00;71.00;;;;;;5130661;27;20031;-79
2023/07/23 07:26:53;;;;;;;4.63;2.42;;;22.00;71.50;;;;;;5133171;27;20319;-78
2023/07/23 07:29:19;;;;;;;7.00;2.78;;;21.90;71.20;;;;;;5132641;27;20023;-79
2023/07/23 07:31:45;;;;;;;5.97;2.42;;;21.70;71.40;;;;;;5133823;27;20055;-78
2023/07/23 07:34:11;;;;;;;6.55;2.75;;;21.50;72.20;;;;;;5132909;27;20034;-80
2023/07/23 07:36:38;;;;;;;5.55;2.53;;;21.90;71.70;;;;;;5129877;27;20382;-80
2023/07/23 07:39:04;;;;;;;4.93;2.40;;;22.30;70.80;;;;;;5133513;27;20019;-79
2023/07/23 07:41:30;;;;;;;4.43;2.50;;;23.00;69.60;;;;;;5129022;27;20027;-80
2023/07/23 07:43:55;;;;;;;6.20;2.65;;;23.60;68.10;;;;;;5128183;28;20098;-80
2023/07/23 07:46:21;;;;;;;4.35;2.50;;;24.20;67.30;;;;;;5128892;27;20035;-80
2023/07/23 07:48:47;;;;;;;4.50;2.33;;;25.20;65.90;;;;;;5130019;27;20436;-81
2023/07/23 07:51:13;;;;;;;5.53;2.35;;;25.60;64.60;;;;;;5129498;28;20060;-80
2023/07/23 07:53:38;;;;;;;5.57;2.78;;;25.70;64.20;;;;;;5115513;28;20338;-79
2023/07/23 07:56:05;;;;;;;4.90;2.40;;;25.10;64.80;;;;;;5132733;27;20395;-80
2023/07/23 07:58:31;;;;;;;4.63;2.47;;;24.50;66.60;;;;;;5124323;27;20034;-79
2023/07/23 08:00:58;;;;;;;6.50;2.28;;;24.30;67.10;;;;;;5112662;28;20023;-78
2023/07/23 08:03:25;;;;;;;7.45;2.67;;;24.50;67.40;;;;;;5129077;27;20110;-78
2023/07/23 08:05:52;;;;;;;7.18;2.50;;;25.10;66.60;;;;;;5125167;28;20042;-79
2023/07/23 08:08:22;;;;;;;4.32;2.25;;;25.50;66.20;;;;;;5116396;27;20373;-79
2023/07/23 08:10:48;;;;;;;4.25;2.30;;;25.80;65.40;;;;;;5133914;27;20030;-78
2023/07/23 08:13:15;;;;;;;5.32;2.30;;;25.10;65.70;;;;;;5128429;28;20323;-78
2023/07/23 08:15:41;;;;;;;4.80;2.30;;;24.60;67.70;;;;;;5127336;27;20032;-77
2023/07/23 08:18:07;;;;;;;4.85;2.30;;;24.70;67.40;;;;;;5127519;27;20015;-77
2023/07/23 08:20:34;;;;;;;4.78;2.60;;;25.00;66.90;;;;;;5134414;27;20347;-76
2023/07/23 08:23:01;;;;;;;4.72;2.22;;;25.40;67.40;;;;;;5136374;27;20019;-80
2023/07/23 08:25:29;;;;;;;4.18;2.25;;;25.50;66.30;;;;;;5118367;27;20027;-79
2023/07/23 08:28:00;;;;;;;4.78;2.63;;;25.50;66.00;;;;;;5121292;27;20027;-79
2023/07/23 08:30:29;;;;;;;4.47;2.15;;;26.00;65.30;;;;;;5129668;27;20108;-80
2023/07/23 08:32:56;;;;;;;5.32;2.45;;;26.30;64.90;;;;;;5119379;27;20031;-79
2023/07/23 08:35:23;;;;;;;4.85;2.50;;;26.20;65.40;;;;;;5137173;27;20035;-79
2023/07/23 08:37:49;;;;;;;4.07;2.10;;;26.40;64.40;;;;;;5137407;27;20034;-79
2023/07/23 08:40:15;;;;;;;6.43;2.53;;;26.10;65.20;;;;;;5138507;27;20026;-79
2023/07/23 08:42:44;;;;;;;5.03;2.05;;;26.80;65.40;;;;;;5124351;27;20080;-78
2023/07/23 08:45:18;;;;;;;4.22;2.25;;;27.30;63.90;;;;;;5137773;27;20027;-79
2023/07/23 08:47:47;;;;;;;7.22;2.40;;;26.70;64.20;;;;;;5120839;27;20428;-77
2023/07/23 08:50:14;;;;;;;4.25;2.10;;;26.10;65.30;;;;;;5119359;27;20248;-77
2023/07/23 08:52:41;;;;;;;5.15;2.25;;;25.60;66.50;;;;;;5130266;27;20045;-77
2023/07/23 08:55:07;;;;;;;4.05;2.15;;;25.40;67.50;;;;;;5126198;27;20145;-77
2023/07/23 08:57:33;;;;;;;4.70;2.20;;;25.00;67.80;;;;;;5128355;27;20019;-78
2023/07/23 09:00:00;;;;;;;4.63;2.15;;;24.70;68.40;;;;;;5133546;27;20457;-80
2023/07/23 09:02:26;;;;;;;3.88;2.20;;;24.90;68.30;;;;;;5128570;27;20034;-77
2023/07/23 09:04:52;;;;;;;5.30;2.40;;;24.80;68.50;;;;;;5143282;27;20023;-80
2023/07/23 09:07:19;;;;;;;5.57;2.10;;;24.90;68.90;;;;;;5115848;27;20027;-80
2023/07/23 09:09:49;;;;;;;4.22;2.22;;;24.70;69.00;;;;;;5131456;27;20031;-80
2023/07/23 09:12:16;;;;;;;4.45;1.98;;;24.90;68.70;;;;;;5136081;27;20098;-79
2023/07/23 09:14:43;;;;;;;5.40;2.40;;;25.20;68.20;;;;;;5135068;27;20085;-79
2023/07/23 09:17:19;;;;;;;4.85;1.80;;;25.30;67.40;;;;;;5133525;27;20023;-78
2023/07/23 09:19:45;;;;;;;4.07;2.00;;;25.10;68.00;;;;;;5137319;27;20052;-79
2023/07/23 09:22:11;;;;;;;4.47;2.22;;;25.40;68.00;;;;;;5115415;27;20324;-79
2023/07/23 09:24:37;;;;;;;3.53;1.92;;;26.30;67.10;;;;;;5117512;27;20022;-81
2023/07/23 09:27:03;;;;;;;4.22;2.00;;;26.60;65.10;;;;;;5136718;27;20031;-80
2023/07/23 09:29:36;;;;;;;6.05;2.10;;;26.90;64.90;;;;;;5127185;27;20031;-81
2023/07/23 09:32:02;;;;;;;6.65;2.05;;;27.10;65.10;;;;;;5134547;27;20030;-79
2023/07/23 09:34:28;;;;;;;4.65;2.00;;;26.60;65.10;;;;;;5135775;27;20039;-78
2023/07/23 09:36:54;;;;;;;4.63;2.15;;;25.60;68.90;;;;;;5135233;27;20343;-81
2023/07/23 09:39:23;;;;;;;5.68;2.17;;;24.40;70.30;;;;;;5118126;27;20027;-79
2023/07/23 09:41:49;;;;;;;5.80;2.30;;;23.80;71.10;;;;;;5134199;27;20419;-80
2023/07/23 09:44:14;;;;;;;4.68;2.10;;;24.50;71.50;;;;;;5118328;27;20027;-82
2023/07/23 09:46:45;;;;;;;4.22;2.03;;;25.60;67.70;;;;;;5137188;27;20129;-81
2023/07/23 09:49:14;;;;;;;3.92;1.90;;;26.20;66.10;;;;;;5125425;27;20043;-80
2023/07/23 09:51:51;;;;;;;4.40;1.98;;;26.50;64.90;;;;;;5137273;27;20041;-82
2023/07/23 09:54:17;;;;;;;4.80;2.20;;;26.70;64.40;;;;;;5116125;27;20142;-80
2023/07/23 09:56:44;;;;;;;3.92;1.80;;;27.00;64.00;;;;;;5119520;27;20442;-81
2023/07/23 09:59:10;;;;;;;6.10;2.15;;;27.10;63.10;;;;;;5133991;27;20092;-81
2023/07/23 10:01:37;;;;;;;5.07;2.42;;;26.80;63.30;;;;;;5120404;27;20364;-80
2023/07/23 10:04:04;;;;;;;5.40;2.08;;;26.80;63.80;;;;;;5119366;27;20309;-81
2023/07/23 10:06:30;;;;;;;8.07;2.28;;;28.00;62.30;;;;;;5132636;27;20023;-82
2023/07/23 10:08:56;;;;;;;6.18;2.25;;;28.00;60.40;;;;;;5134359;27;20032;-80
2023/07/23 10:11:22;;;;;;;5.20;2.60;;;27.70;61.10;;;;;;5134049;27;20423;-80
2023/07/23 10:13:48;;;;;;;4.20;2.20;;;27.50;61.00;;;;;;5117003;27;20035;-79
2023/07/23 10:16:29;;;;;;;5.90;2.22;;;26.70;62.50;;;;;;5119058;27;20027;-81
2023/07/23 10:18:58;;;;;;;4.72;2.10;;;26.40;63.80;;;;;;5133577;27;20015;-80
2023/07/23 10:21:24;;;;;;;5.45;2.50;;;26.30;64.00;;;;;;5133102;27;20019;-80
2023/07/23 10:23:56;;;;;;;7.93;2.65;;;26.00;62.90;;;;;;5136448;27;20433;-81
2023/07/23 10:26:27;;;;;;;6.30;2.83;;;25.70;63.80;;;;;;5133720;27;20066;-82
2023/07/23 10:29:18;;;;;;;5.15;2.45;;;26.30;63.10;;;;;;5123931;27;20031;-81
2023/07/23 10:31:44;;;;;;;5.38;3.10;;;27.10;62.50;;;;;;5130460;27;20479;-79
2023/07/23 10:34:22;;;;;;;4.78;2.65;;;27.00;61.30;;;;;;5133969;27;20080;-79
2023/07/23 10:37:19;;;;;;;5.20;2.78;;;27.70;60.50;;;;;;5113542;27;20031;-80
2023/07/23 10:39:47;;;;;;;6.68;2.72;;;27.60;60.10;;;;;;5120344;27;20412;-82
2023/07/23 10:42:31;;;;;;;4.85;2.85;;;27.60;59.70;;;;;;5122748;27;20020;-81
2023/07/23 10:45:15;;;;;;;;;;;26.80;61.10;;;;;;5117281;28;20026;-81
2023/07/23 10:47:50;;;;;;;6.35;3.38;;;27.30;61.20;;;;;;5121815;27;20287;-81
2023/07/23 10:50:18;;;;;;;6.20;3.25;;;27.80;59.90;;;;;;5136575;27;20033;-81
2023/07/23 10:52:49;;;;;;;5.85;3.58;;;27.60;58.70;;;;;;5135579;27;20114;-81
2023/07/23 10:55:46;;;;;;;7.47;3.92;;;27.80;58.90;;;;;;5132418;27;20033;-82
2023/07/23 10:58:15;;;;;;;6.65;3.70;;;27.60;57.70;;;;;;5134362;27;20106;-80
2023/07/23 11:00:47;;;;;;;10.23;4.35;;;26.90;59.80;;;;;;5136834;27;20054;-81
2023/07/23 11:03:16;;;;;;;7.68;4.53;;;26.70;58.80;;;;;;5135211;27;20308;-83
2023/07/23 11:05:42;;;;;;;7.97;4.55;;;26.40;58.50;;;;;;5135630;27;20047;-78
2023/07/23 11:08:27;;;;;;;9.25;4.22;;;26.80;58.80;;;;;;5135574;27;20023;-82
2023/07/23 11:10:57;;;;;;;10.52;4.70;;;27.20;57.90;;;;;;5109098;27;20420;-82
2023/07/23 11:13:29;;;;;;;10.52;4.47;;;27.10;58.80;;;;;;5134643;27;20141;-78
2023/07/23 11:15:55;;;;;;;8.23;4.43;;;27.80;57.00;;;;;;5136447;27;20408;-80
2023/07/23 11:18:22;;;;;;;7.93;3.60;;;28.00;57.20;;;;;;5134810;27;20067;-80
2023/07/23 11:20:49;;;;;;;7.50;4.20;;;27.90;57.90;;;;;;5132890;27;20023;-79
2023/07/23 11:23:17;;;;;;;7.28;4.10;;;28.20;55.40;;;;;;5134464;27;20027;-81
2023/07/23 11:25:43;;;;;;;8.00;4.13;;;28.10;55.40;;;;;;5118242;27;20016;-80
2023/07/23 11:28:12;;;;;;;7.32;4.10;;;27.80;55.60;;;;;;5135576;27;20035;-79
2023/07/23 11:30:38;;;;;;;6.72;3.80;;;27.60;56.50;;;;;;5137339;27;20070;-78
2023/07/23 11:33:04;;;;;;;6.32;3.92;;;27.50;55.60;;;;;;5135362;27;20427;-79
2023/07/23 11:35:31;;;;;;;6.47;3.78;;;27.30;57.40;;;;;;5134184;27;20416;-79
2023/07/23 11:38:01;;;;;;;7.63;4.30;;;27.90;57.30;;;;;;5116939;27;20027;-79
2023/07/23 11:40:27;;;;;;;7.47;4.10;;;28.10;55.90;;;;;;5128140;27;20092;-77
2023/07/23 11:42:53;;;;;;;8.18;4.43;;;28.30;55.20;;;;;;5130731;28;20019;-76
2023/07/23 11:45:20;;;;;;;6.72;3.90;;;28.70;54.80;;;;;;5135120;28;20055;-77
2023/07/23 11:47:50;;;;;;;10.95;4.20;;;28.60;55.40;;;;;;5135493;27;20023;-77
2023/07/23 11:50:16;;;;;;;7.97;3.90;;;28.40;54.20;;;;;;5131510;28;20051;-79
2023/07/23 11:52:42;;;;;;;6.88;3.88;;;27.50;55.20;;;;;;5128206;27;20067;-79
2023/07/23 11:55:21;;;;;;;6.68;4.10;;;28.10;53.60;;;;;;5137803;27;20340;-80
2023/07/23 11:58:05;;;;;;;6.35;3.70;;;28.40;52.90;;;;;;5127340;27;20037;-78
2023/07/23 12:00:37;;;;;;;11.98;4.20;;;28.70;53.90;;;;;;5140038;27;20034;-81
2023/07/23 12:03:07;;;;;;;8.40;4.43;;;28.50;53.80;;;;;;5140344;27;20408;-81
2023/07/23 12:05:32;;;;;;;6.80;3.90;;;28.70;52.90;;;;;;5138029;27;20076;-79
2023/07/23 12:07:58;;;;;;;8.27;3.97;;;28.00;54.00;;;;;;5120590;27;20035;-82
2023/07/23 12:10:26;;;;;;;7.15;4.10;;;27.30;54.20;;;;;;5140536;27;20025;-81
2023/07/23 12:12:52;;;;;;;8.95;3.92;;;26.60;55.30;;;;;;5138542;27;20079;-81
2023/07/23 12:15:18;;;;;;;7.82;4.07;;;26.80;55.70;;;;;;5140626;27;20019;-81
2023/07/23 12:17:44;;;;;;;7.72;3.95;;;27.20;55.30;;;;;;5121223;27;20031;-81
2023/07/23 12:20:15;;;;;;;6.72;3.72;;;27.60;55.60;;;;;;5118665;27;20019;-80
2023/07/23 12:22:55;;;;;;;7.60;3.60;;;27.70;53.30;;;;;;5137069;27;20050;-81
2023/07/23 12:25:21;;;;;;;7.82;3.35;;;27.70;52.50;;;;;;5130954;27;20118;-82
2023/07/23 12:27:47;;;;;;;6.35;3.40;;;27.60;52.70;;;;;;5139605;27;20410;-82
2023/07/23 12:30:13;;;;;;;6.28;3.33;;;27.30;53.20;;;;;;5140318;27;20050;-82
2023/07/23 12:32:39;;;;;;;8.68;3.75;;;26.70;53.80;;;;;;5137000;27;20027;-81
2023/07/23 12:35:06;;;;;;;5.47;2.95;;;26.40;55.20;;;;;;5139213;27;20085;-82
2023/07/23 12:37:34;;;;;;;6.10;3.25;;;26.60;55.80;;;;;;5137765;27;20780;-81
2023/07/23 12:40:00;;;;;;;7.07;3.20;;;26.90;55.20;;;;;;5138212;27;20042;-81
2023/07/23 12:42:25;;;;;;;5.53;3.20;;;26.80;54.90;;;;;;5138410;27;20463;-81
2023/07/23 12:44:51;;;;;;;5.28;3.08;;;26.40;56.10;;;;;;5136455;27;20023;-82
2023/07/23 12:47:16;;;;;;;5.28;3.20;;;26.50;56.50;;;;;;5136355;27;20077;-82